Time;durP1;ratioP1;P1;durP2;ratioP2;P2;SDS_P1;SDS_P2;PMS_P1;PMS_P2;Temp;Humidity;BMP_temperature;BMP_pressure;BME280_temperature;BME280_humidity;BME280_pressure;Samples;Min_cycle;Max_cycle;Signal;HPM_P1;HPM_P2
2021/06/15 00:02:08;;;;;;;;;;;;;;;20.33;nan;100879.78;5053350;28;20686;-77
2021/06/15 00:04:35;;;;;;;;;;;;;;;20.38;nan;100871.44;5036469;28;19921;-77
2021/06/15 00:07:02;;;;;;;;;;;;;;;20.38;nan;100877.50;5054336;28;19964;-77
2021/06/15 00:09:28;;;;;;;;;;;;;;;20.40;nan;100885.28;5036572;28;20407;-77
2021/06/15 00:11:55;;;;;;;;;;;;;;;20.38;nan;100877.50;5053660;28;19920;-77
2021/06/15 00:14:21;;;;;;;;;;;;;;;20.35;nan;100876.03;5053275;28;20020;-77
2021/06/15 00:16:48;;;;;;;;;;;;;;;20.33;nan;100882.41;5036637;28;20409;-77
2021/06/15 00:19:14;;;;;;;;;;;;;;;20.29;nan;100883.66;5020505;28;19982;-78
2021/06/15 00:21:42;;;;;;;;;;;;;;;20.27;nan;100882.97;5053732;28;19920;-77
2021/06/15 00:24:09;;;;;;;;;;;;;;;20.26;nan;100889.22;5054456;28;19974;-77
2021/06/15 00:26:35;;;;;;;;;;;;;;;20.27;nan;100889.09;5054448;28;20042;-78
2021/06/15 00:29:02;;;;;;;;;;;;;;;20.27;nan;100893.53;5054442;28;19960;-77
2021/06/15 00:31:28;;;;;;;;;;;;;;;20.25;nan;100892.88;5035892;28;20288;-77
2021/06/15 00:33:55;;;;;;;;;;;;;;;20.21;nan;100889.69;5053229;28;19921;-77
2021/06/15 00:36:21;;;;;;;;;;;;;;;20.20;nan;100890.66;5073916;28;19924;-78
2021/06/15 00:38:49;;;;;;;;;;;;;;;20.18;nan;100897.06;5074619;28;19974;-78
2021/06/15 00:41:15;;;;;;;;;;;;;;;20.14;nan;100896.50;5055997;28;19967;-77
2021/06/15 00:43:42;;;;;;;;;;;;;;;20.09;nan;100896.13;5073494;28;19920;-77
2021/06/15 00:46:08;;;;;;;;;;;;;;;20.05;nan;100896.59;5077300;28;19921;-77
2021/06/15 00:48:36;;;;;;;;;;;;;;;20.00;nan;100904.94;5060068;28;19943;-77
2021/06/15 00:51:06;;;;;;;;;;;;;;;19.95;nan;100900.13;5057360;28;19925;-77
2021/06/15 00:53:33;;;;;;;;;;;;;;;19.92;nan;100900.41;5055595;28;19982;-77
2021/06/15 00:56:01;;;;;;;;;;;;;;;19.88;nan;100898.22;5056100;28;20404;-77
2021/06/15 00:58:30;;;;;;;;;;;;;;;19.83;nan;100900.47;5074188;28;19951;-77
2021/06/15 01:00:58;;;;;;;;;;;;;;;19.77;nan;100893.13;5074584;28;20343;-77
2021/06/15 01:03:26;;;;;;;;;;;;;;;19.70;nan;100895.53;5051712;28;19968;-78
2021/06/15 01:05:54;;;;;;;;;;;;;;;19.63;nan;100894.44;5053843;28;20331;-78
2021/06/15 01:08:25;;;;;;;;;;;;;;;19.60;nan;100896.53;5053691;28;19920;-77
2021/06/15 01:10:59;;;;;;;;;;;;;;;19.56;nan;100895.97;5035946;28;19971;-77
2021/06/15 01:13:43;;;;;;;;;;;;;;;19.55;nan;100896.94;5051688;28;20266;-77
2021/06/15 01:16:17;;;;;;;;;;;;;;;19.53;nan;100891.84;5052935;28;19986;-77
2021/06/15 01:18:46;;;;;;;;;;;;;;;19.56;nan;100895.97;5073133;28;19924;-77
2021/06/15 01:21:13;;;;;;;;;;;;;;;19.54;nan;100901.38;5073018;28;19925;-77
2021/06/15 01:23:45;;;;;;;;;;;;;;;19.51;nan;100904.31;5072830;28;19920;-77
2021/06/15 01:26:25;;;;;;;;;;;;;;;19.44;nan;100899.72;5073270;28;19970;-77
2021/06/15 01:28:56;;;;;;;;;;;;;;;19.39;nan;100899.34;5055039;28;19920;-77
2021/06/15 01:31:28;;;;;;;;;;;;;;;19.35;nan;100901.44;5043672;28;19950;-77
2021/06/15 01:33:56;;;;;;;;;;;;;;;19.31;nan;100900.03;5035097;28;19924;-77
2021/06/15 01:36:25;;;;;;;;;;;;;;;19.27;nan;100896.03;5035543;28;19970;-77
2021/06/15 01:38:53;;;;;;;;;;;;;;;19.22;nan;100890.38;5053094;28;19924;-77
2021/06/15 01:41:25;;;;;;;;;;;;;;;19.16;nan;100894.41;5064305;28;20003;-77
2021/06/15 01:43:55;;;;;;;;;;;;;;;19.11;nan;100888.75;5054606;28;19927;-77
2021/06/15 01:46:25;;;;;;;;;;;;;;;19.08;nan;100893.44;5034944;28;20346;-77
2021/06/15 01:48:56;;;;;;;;;;;;;;;19.03;nan;100885.16;5052914;28;20020;-77
2021/06/15 01:51:25;;;;;;;;;;;;;;;18.99;nan;100886.41;5052275;28;19952;-77
2021/06/15 01:53:57;;;;;;;;;;;;;;;18.93;nan;100887.81;5053847;28;19927;-78
2021/06/15 01:56:31;;;;;;;;;;;;;;;18.91;nan;100895.00;5072627;28;19920;-77
2021/06/15 01:59:03;;;;;;;;;;;;;;;18.88;nan;100895.28;5054677;28;20324;-77
2021/06/15 02:01:34;;;;;;;;;;;;;;;18.86;nan;100889.34;5053829;28;19924;-77
2021/06/15 02:04:04;;;;;;;;;;;;;;;18.83;nan;100894.84;5057221;28;20382;-77
2021/06/15 02:06:31;;;;;;;;;;;;;;;18.79;nan;100895.28;5055062;28;19927;-77
2021/06/15 02:08:59;;;;;;;;;;;;;;;18.78;nan;100907.59;5038742;28;19927;-77
2021/06/15 02:11:39;;;;;;;;;;;;;;;18.75;nan;100907.91;5038252;28;19931;-77
2021/06/15 02:14:29;;;;;;;;;;;;;;;18.71;nan;100903.88;5035767;28;19927;-77
2021/06/15 02:17:16;;;;;;;;;;;;;;;18.66;nan;100911.34;5076377;28;19931;-77
2021/06/15 02:20:01;;;;;;;;;;;;;;;18.66;nan;100904.28;5076662;28;20577;-79
2021/06/15 02:22:31;;;;;;;;;;;;;;;18.65;nan;100912.34;5058251;28;19966;-77
2021/06/15 02:24:59;;;;;;;;;;;;;;;18.61;nan;100905.66;5058578;28;20399;-77
2021/06/15 02:27:27;;;;;;;;;;;;;;;18.56;nan;100903.47;5059239;28;19964;-78
2021/06/15 02:29:54;;;;;;;;;;;;;;;18.53;nan;100903.69;5076534;28;19920;-77
2021/06/15 02:32:24;;;;;;;;;;;;;;;18.52;nan;100906.47;5057545;28;20272;-77
2021/06/15 02:34:52;;;;;;;;;;;;;;;18.50;nan;100906.59;5076358;28;20015;-77
2021/06/15 02:37:23;;;;;;;;;;;;;;;18.46;nan;100914.91;5076987;28;19921;-78
2021/06/15 02:39:50;;;;;;;;;;;;;;;18.42;nan;100911.72;5077286;28;19924;-77
2021/06/15 02:42:18;;;;;;;;;;;;;;;18.40;nan;100908.41;5056678;28;19979;-77
2021/06/15 02:44:47;;;;;;;;;;;;;;;18.40;nan;100913.66;5056786;28;20008;-77
2021/06/15 02:47:18;;;;;;;;;;;;;;;18.36;nan;100912.25;5058571;28;19974;-77
2021/06/15 02:49:49;;;;;;;;;;;;;;;18.31;nan;100896.91;5038122;28;19925;-77
2021/06/15 02:52:17;;;;;;;;;;;;;;;18.26;nan;100904.38;5055844;28;19975;-77
2021/06/15 02:54:46;;;;;;;;;;;;;;;18.22;nan;100899.53;5056500;28;19924;-77
2021/06/15 02:57:14;;;;;;;;;;;;;;;18.19;nan;100902.41;5057397;28;19947;-77
2021/06/15 02:59:43;;;;;;;;;;;;;;;18.15;nan;100904.47;5056883;28;19921;-77
2021/06/15 03:02:09;;;;;;;;;;;;;;;18.11;nan;100905.72;5054183;28;19942;-77
2021/06/15 03:04:45;;;;;;;;;;;;;;;18.09;nan;100907.66;5058873;28;19920;-77
2021/06/15 03:07:14;;;;;;;;;;;;;;;18.08;nan;100911.22;5058560;28;19978;-77
2021/06/15 03:09:42;;;;;;;;;;;;;;;18.03;nan;100913.44;5042032;28;19920;-77
2021/06/15 03:12:13;;;;;;;;;;;;;;;17.98;nan;100909.56;5059932;28;19920;-77
2021/06/15 03:14:47;;;;;;;;;;;;;;;17.94;nan;100915.06;5062469;28;19983;-77
2021/06/15 03:17:14;;;;;;;;;;;;;;;17.90;nan;100910.22;5063023;28;20003;-77
2021/06/15 03:19:44;;;;;;;;;;;;;;;17.89;nan;100911.16;5037828;28;20020;-77
2021/06/15 03:22:11;;;;;;;;;;;;;;;17.88;nan;100914.75;5037756;28;19928;-77
2021/06/15 03:24:44;;;;;;;;;;;;;;;17.85;nan;100928.16;5048091;28;19955;-77
2021/06/15 03:27:12;;;;;;;;;;;;;;;17.82;nan;100924.00;5054853;28;19921;-78
2021/06/15 03:29:46;;;;;;;;;;;;;;;17.85;nan;100920.28;5037993;28;19925;-77
2021/06/15 03:32:14;;;;;;;;;;;;;;;17.82;nan;100920.53;5036372;28;19944;-77
2021/06/15 03:34:43;;;;;;;;;;;;;;;17.80;nan;100925.94;5054696;28;19921;-77
2021/06/15 03:37:12;;;;;;;;;;;;;;;17.81;nan;100922.38;5059422;28;19920;-77
2021/06/15 03:39:41;;;;;;;;;;;;;;;17.79;nan;100928.69;5075021;28;19962;-77
2021/06/15 03:42:10;;;;;;;;;;;;;;;17.74;nan;100925.63;5074617;28;19927;-77
2021/06/15 03:44:37;;;;;;;;;;;;;;;17.74;nan;100931.72;5079526;22;19960;-78
2021/06/15 03:47:04;;;;;;;;;;;;;;;17.79;nan;100933.94;5050429;28;19966;-80
2021/06/15 03:49:31;;;;;;;;;;;;;;;17.82;nan;100934.50;5059377;28;19951;-79
2021/06/15 03:51:59;;;;;;;;;;;;;;;17.82;nan;100938.91;5058474;28;19921;-79
2021/06/15 03:54:26;;;;;;;;;;;;;;;17.86;nan;100932.47;5058841;28;20295;-79
2021/06/15 03:56:55;;;;;;;;;;;;;;;17.88;nan;100927.88;5040915;28;19975;-78
2021/06/15 03:59:26;;;;;;;;;;;;;;;17.88;nan;100923.47;5059214;28;20019;-79
2021/06/15 04:01:54;;;;;;;;;;;;;;;17.89;nan;100917.25;5057829;28;19925;-79
2021/06/15 04:04:21;;;;;;;;;;;;;;;17.92;nan;100931.94;5058868;28;19982;-79
2021/06/15 04:06:50;;;;;;;;;;;;;;;17.97;nan;100931.53;5059906;28;19931;-78
2021/06/15 04:09:19;;;;;;;;;;;;;;;18.00;nan;100937.34;5060153;28;20339;-78
2021/06/15 04:11:47;;;;;;;;;;;;;;;18.05;nan;100950.94;5024446;28;19920;-79
2021/06/15 04:14:14;;;;;;;;;;;;;;;18.06;nan;100955.19;5058250;28;19920;-78
2021/06/15 04:16:43;;;;;;;;;;;;;;;18.04;nan;100944.00;5052730;28;19967;-79
2021/06/15 04:19:13;;;;;;;;;;;;;;;18.02;nan;100945.09;5051067;28;19924;-78
2021/06/15 04:21:40;;;;;;;;;;;;;;;18.05;nan;100940.41;5022452;28;19975;-79
2021/06/15 04:24:11;;;;;;;;;;;;;;;18.10;nan;100940.84;5054835;28;19929;-80
2021/06/15 04:26:38;;;;;;;;;;;;;;;18.10;nan;100945.25;5053513;28;19925;-79
2021/06/15 04:29:06;;;;;;;;;;;;;;;18.14;nan;100939.59;5045391;28;19921;-78
2021/06/15 04:31:34;;;;;;;;;;;;;;;18.21;nan;100935.47;5054180;28;19928;-79
2021/06/15 04:34:04;;;;;;;;;;;;;;;18.28;nan;100947.13;5026993;28;19921;-78
2021/06/15 04:36:32;;;;;;;;;;;;;;;18.36;nan;100955.13;5051308;28;19927;-78
2021/06/15 04:38:59;;;;;;;;;;;;;;;18.46;nan;100965.69;5051544;28;19982;-78
2021/06/15 04:41:28;;;;;;;;;;;;;;;18.49;nan;100964.56;5050685;28;19920;-76
2021/06/15 04:43:56;;;;;;;;;;;;;;;18.48;nan;100965.53;5050462;28;19925;-76
2021/06/15 04:46:26;;;;;;;;;;;;;;;18.46;nan;100964.84;5050008;28;20356;-76
2021/06/15 04:48:55;;;;;;;;;;;;;;;18.50;nan;100968.88;5051022;28;20242;-77
2021/06/15 04:51:23;;;;;;;;;;;;;;;18.51;nan;100974.00;5050475;28;19925;-77
2021/06/15 04:53:50;;;;;;;;;;;;;;;18.45;nan;100966.66;5051925;28;20005;-76
2021/06/15 04:56:17;;;;;;;;;;;;;;;18.46;nan;100981.47;5058245;28;20027;-76
2021/06/15 04:58:44;;;;;;;;;;;;;;;18.51;nan;100981.91;5052731;28;20349;-76
2021/06/15 05:01:11;;;;;;;;;;;;;;;18.57;nan;100984.00;5041402;28;19947;-77
2021/06/15 05:03:38;;;;;;;;;;;;;;;18.69;nan;100996.06;5046476;28;19920;-76
2021/06/15 05:06:06;;;;;;;;;;;;;;;18.78;nan;100997.03;5060751;28;20024;-76
2021/06/15 05:08:36;;;;;;;;;;;;;;;18.80;nan;100989.00;5052281;28;19995;-76
2021/06/15 05:11:03;;;;;;;;;;;;;;;18.80;nan;100989.84;5049557;28;19920;-77
2021/06/15 05:13:30;;;;;;;;;;;;;;;18.86;nan;100999.00;5049851;28;20343;-76
2021/06/15 05:15:58;;;;;;;;;;;;;;;18.90;nan;100998.56;5051335;28;19950;-77
2021/06/15 05:18:24;;;;;;;;;;;;;;;19.03;nan;101004.41;5046490;28;19985;-77
2021/06/15 05:20:51;;;;;;;;;;;;;;;19.13;nan;101012.28;5032989;28;20007;-77
2021/06/15 05:23:20;;;;;;;;;;;;;;;19.25;nan;101010.34;5050433;28;19952;-77
2021/06/15 05:25:49;;;;;;;;;;;;;;;19.34;nan;101010.34;5051966;28;19921;-77
2021/06/15 05:28:15;;;;;;;;;;;;;;;19.47;nan;101010.09;5054040;28;19974;-77
2021/06/15 05:30:42;;;;;;;;;;;;;;;19.67;nan;101019.59;5050835;28;19975;-77
2021/06/15 05:33:10;;;;;;;;;;;;;;;19.81;nan;101023.59;5050500;28;20004;-76
2021/06/15 05:35:37;;;;;;;;;;;;;;;19.94;nan;101032.88;5037336;28;20003;-80
2021/06/15 05:38:03;;;;;;;;;;;;;;;20.03;nan;101052.25;5062794;28;20012;-78
2021/06/15 05:40:30;;;;;;;;;;;;;;;20.04;nan;101050.44;5061820;28;19928;-76
2021/06/15 05:42:58;;;;;;;;;;;;;;;20.09;nan;101046.38;5038670;28;20427;-79
2021/06/15 05:45:24;;;;;;;;;;;;;;;20.18;nan;101052.63;5031733;28;19921;-79
2021/06/15 05:47:50;;;;;;;;;;;;;;;20.23;nan;101045.09;5040643;28;19921;-80
2021/06/15 05:50:17;;;;;;;;;;;;;;;20.35;nan;101038.69;5043107;28;19921;-79
2021/06/15 05:52:44;;;;;;;;;;;;;;;20.53;nan;101051.94;5037436;28;20196;-77
2021/06/15 05:55:12;;;;;;;;;;;;;;;20.71;nan;101058.91;5046329;28;19925;-80
2021/06/15 05:57:39;;;;;;;;;;;;;;;20.76;nan;101055.81;5037754;28;19945;-77
2021/06/15 06:00:09;;;;;;;;;;;;;;;20.84;nan;101045.38;5031762;28;19921;-78
2021/06/15 06:02:39;;;;;;;;;;;;;;;20.90;nan;101047.41;5036424;28;19921;-77
2021/06/15 06:08:09;;;;;;;;;;;;;;;20.88;nan;101032.69;5037630;28;19928;-79
2021/06/15 06:10:37;;;;;;;;;;;;;;;20.89;nan;101042.28;5038466;28;19956;-79
2021/06/15 06:13:06;;;;;;;;;;;;;;;20.97;nan;101040.56;5034270;28;19925;-79
2021/06/15 06:15:34;;;;;;;;;;;;;;;21.03;nan;101039.13;5030663;28;19925;-78
2021/06/15 06:18:03;;;;;;;;;;;;;;;21.07;nan;101045.75;5034363;28;19943;-78
2021/06/15 06:20:30;;;;;;;;;;;;;;;21.10;nan;101056.00;5038626;28;19928;-79
2021/06/15 06:22:57;;;;;;;;;;;;;;;21.20;nan;101051.53;5018974;28;20016;-80
2021/06/15 06:25:25;;;;;;;;;;;;;;;21.27;nan;101044.63;5035010;28;19971;-80
2021/06/15 06:27:52;;;;;;;;;;;;;;;21.31;nan;101042.53;5016781;28;19921;-79
2021/06/15 06:30:20;;;;;;;;;;;;;;;21.25;nan;101038.69;5047811;28;19948;-81
2021/06/15 06:32:47;;;;;;;;;;;;;;;21.23;nan;101039.81;5034997;28;19921;-78
2021/06/15 06:35:14;;;;;;;;;;;;;;;21.24;nan;101037.03;5033095;28;19956;-79
2021/06/15 06:37:40;;;;;;;;;;;;;;;21.33;nan;101051.16;5035833;28;19924;-78
2021/06/15 06:40:08;;;;;;;;;;;;;;;21.36;nan;101050.81;5035985;28;19924;-81
2021/06/15 06:42:34;;;;;;;;;;;;;;;21.34;nan;101056.25;5034485;28;20405;-81
2021/06/15 06:45:01;;;;;;;;;;;;;;;21.41;nan;101053.84;5035680;28;19921;-81
2021/06/15 06:47:27;;;;;;;;;;;;;;;21.53;nan;101055.25;5025312;28;19928;-80
2021/06/15 06:49:55;;;;;;;;;;;;;;;21.65;nan;101046.09;5058983;28;19921;-81
2021/06/15 06:52:21;;;;;;;;;;;;;;;21.62;nan;101046.44;5042759;28;20356;-80
2021/06/15 06:54:48;;;;;;;;;;;;;;;21.72;nan;101047.16;5058443;28;19932;-81
2021/06/15 06:57:15;;;;;;;;;;;;;;;21.87;nan;101050.03;5040017;28;19947;-80
2021/06/15 06:59:41;;;;;;;;;;;;;;;21.99;nan;101044.34;5023194;28;19967;-79
2021/06/15 07:02:07;;;;;;;;;;;;;;;22.09;nan;101051.38;5039090;28;19971;-78
2021/06/15 07:04:34;;;;;;;;;;;;;;;22.08;nan;101062.94;5040367;28;19921;-80
2021/06/15 07:07:02;;;;;;;;;;;;;;;22.12;nan;101054.50;5040558;28;19964;-78
2021/06/15 07:09:28;;;;;;;;;;;;;;;22.18;nan;101064.47;5053375;28;20020;-81
2021/06/15 07:11:55;;;;;;;;;;;;;;;22.22;nan;101059.72;5053078;28;19992;-81
2021/06/15 07:14:21;;;;;;;;;;;;;;;22.25;nan;101049.63;5060857;28;20375;-82
2021/06/15 07:16:48;;;;;;;;;;;;;;;22.26;nan;101050.47;5064044;28;19994;-81
2021/06/15 07:19:14;;;;;;;;;;;;;;;22.35;nan;101052.97;5047879;28;20287;-82
2021/06/15 07:21:42;;;;;;;;;;;;;;;22.43;nan;101054.00;5049780;28;19948;-82
2021/06/15 07:24:10;;;;;;;;;;;;;;;22.45;nan;101044.09;5047742;28;20377;-81
2021/06/15 07:26:37;;;;;;;;;;;;;;;22.55;nan;101040.31;5050303;28;19921;-82
2021/06/15 07:29:04;;;;;;;;;;;;;;;22.65;nan;101050.75;5029408;28;19928;-81
2021/06/15 07:31:31;;;;;;;;;;;;;;;22.72;nan;101050.00;5045496;28;20359;-81
2021/06/15 07:33:58;;;;;;;;;;;;;;;22.71;nan;101050.94;5052811;28;19951;-82
2021/06/15 07:36:24;;;;;;;;;;;;;;;22.88;nan;101061.63;5048676;28;20034;-81
2021/06/15 07:38:52;;;;;;;;;;;;;;;22.99;nan;101059.50;5065177;28;20388;-81
2021/06/15 07:41:20;;;;;;;;;;;;;;;23.04;nan;101065.13;5063048;28;20153;-81
2021/06/15 07:43:47;;;;;;;;;;;;;;;23.09;nan;101073.41;5058991;28;19925;-80
2021/06/15 07:46:15;;;;;;;;;;;;;;;23.15;nan;101070.13;5048803;28;19951;-81
2021/06/15 07:48:41;;;;;;;;;;;;;;;23.20;nan;101066.97;5062602;28;19970;-81
2021/06/15 07:51:08;;;;;;;;;;;;;;;23.25;nan;101069.94;5059627;28;19960;-80
2021/06/15 07:53:35;;;;;;;;;;;;;;;23.35;nan;101070.63;5055827;28;19920;-80
2021/06/15 07:56:01;;;;;;;;;;;;;;;23.43;nan;101069.78;5056697;28;19951;-78
2021/06/15 07:58:29;;;;;;;;;;;;;;;23.44;nan;101066.97;5059795;28;19920;-79
2021/06/15 08:00:55;;;;;;;;;;;;;;;23.53;nan;101073.16;5058197;28;20052;-79
2021/06/15 08:03:24;;;;;;;;;;;;;;;23.56;nan;101067.50;5059575;28;19933;-81
2021/06/15 08:05:50;;;;;;;;;;;;;;;23.62;nan;101068.66;5060552;28;20019;-80
2021/06/15 08:08:16;;;;;;;;;;;;;;;23.65;nan;101066.53;5044012;28;19974;-81
2021/06/15 08:10:43;;;;;;;;;;;;;;;23.67;nan;101072.47;5049865;28;19979;-81
2021/06/15 08:13:09;;;;;;;;;;;;;;;23.73;nan;101069.16;5058263;28;19920;-80
2021/06/15 08:15:37;;;;;;;;;;;;;;;23.80;nan;101069.31;5039968;28;19925;-79
2021/06/15 08:18:04;;;;;;;;;;;;;;;23.86;nan;101073.94;5040378;28;19987;-83
2021/06/15 08:20:30;;;;;;;;;;;;;;;23.98;nan;101068.13;5056149;28;19956;-82
2021/06/15 08:22:57;;;;;;;;;;;;;;;23.92;nan;101063.50;5056918;28;19927;-81
2021/06/15 08:25:23;;;;;;;;;;;;;;;24.08;nan;101061.78;5056949;28;19921;-82
2021/06/15 08:27:50;;;;;;;;;;;;;;;24.13;nan;101062.91;5058161;28;19978;-81
2021/06/15 08:30:17;;;;;;;;;;;;;;;24.23;nan;101071.56;5041555;28;19971;-82
2021/06/15 08:32:45;;;;;;;;;;;;;;;24.22;nan;101067.25;5060037;28;19921;-82
2021/06/15 08:35:12;;;;;;;;;;;;;;;24.41;nan;101063.38;5060270;28;20019;-82
2021/06/15 08:37:40;;;;;;;;;;;;;;;24.40;nan;101062.53;5042119;28;19925;-81
2021/06/15 08:40:07;;;;;;;;;;;;;;;24.45;nan;101064.69;5037941;28;19933;-81
2021/06/15 08:42:37;;;;;;;;;;;;;;;24.54;nan;101068.97;5051358;28;19927;-81
2021/06/15 08:45:04;;;;;;;;;;;;;;;24.71;nan;101069.72;5038018;28;19925;-80
2021/06/15 08:47:30;;;;;;;;;;;;;;;24.74;nan;101064.84;5039134;28;19921;-81
2021/06/15 08:49:58;;;;;;;;;;;;;;;24.94;nan;101059.97;5043047;28;20443;-80
2021/06/15 08:52:26;;;;;;;;;;;;;;;25.11;nan;101055.38;5039916;28;19924;-81
2021/06/15 08:54:54;;;;;;;;;;;;;;;25.12;nan;101057.03;5058025;28;20016;-80
2021/06/15 08:57:22;;;;;;;;;;;;;;;25.24;nan;101060.09;5041530;28;20007;-80
2021/06/15 08:59:49;;;;;;;;;;;;;;;25.24;nan;101060.94;5037882;28;20023;-80
2021/06/15 09:02:15;;;;;;;;;;;;;;;25.18;nan;101051.00;5021415;28;19956;-80
2021/06/15 09:04:43;;;;;;;;;;;;;;;25.25;nan;101061.75;5032387;28;20309;-79
2021/06/15 09:07:11;;;;;;;;;;;;;;;25.27;nan;101057.91;5060361;28;19921;-79
2021/06/15 09:09:39;;;;;;;;;;;;;;;25.41;nan;101050.97;5058479;28;19967;-79
2021/06/15 09:12:06;;;;;;;;;;;;;;;25.56;nan;101055.34;5046686;28;20377;-78
2021/06/15 09:14:40;;;;;;;;;;;;;;;25.62;nan;101048.50;5036261;28;19956;-79
2021/06/15 09:17:10;;;;;;;;;;;;;;;25.73;nan;101049.91;5036283;28;19948;-78
2021/06/15 09:19:37;;;;;;;;;;;;;;;25.84;nan;101047.63;5037005;28;19924;-78
2021/06/15 09:22:04;;;;;;;;;;;;;;;25.85;nan;101051.94;5035220;28;19928;-78
2021/06/15 09:24:31;;;;;;;;;;;;;;;25.76;nan;101053.00;5037904;28;19925;-77
2021/06/15 09:27:02;;;;;;;;;;;;;;;25.64;nan;101051.78;5019988;28;20083;-79
2021/06/15 09:29:42;;;;;;;;;;;;;;;25.82;nan;101051.47;5038010;28;19921;-80
2021/06/15 09:32:10;;;;;;;;;;;;;;;25.82;nan;101048.78;5036837;28;19928;-78
2021/06/15 09:34:36;;;;;;;;;;;;;;;25.80;nan;101056.16;5054895;28;20293;-77
2021/06/15 09:37:04;;;;;;;;;;;;;;;25.88;nan;101048.06;5032925;28;19924;-76
2021/06/15 09:39:32;;;;;;;;;;;;;;;25.95;nan;101056.97;5037183;28;19952;-79
2021/06/15 09:41:59;;;;;;;;;;;;;;;25.99;nan;101060.91;5036911;28;19921;-77
2021/06/15 09:44:26;;;;;;;;;;;;;;;26.19;nan;101056.72;5036760;28;19956;-77
2021/06/15 09:46:54;;;;;;;;;;;;;;;26.18;nan;101057.72;5036270;28;19967;-77
2021/06/15 09:49:28;;;;;;;;;;;;;;;26.37;nan;101059.84;5035353;28;20401;-77
2021/06/15 09:52:17;;;;;;;;;;;;;;;26.53;nan;101057.97;5017952;28;20012;-77
2021/06/15 09:54:46;;;;;;;;;;;;;;;26.55;nan;101051.47;5034845;28;20407;-79
2021/06/15 09:57:20;;;;;;;;;;;;;;;26.73;nan;101045.72;5037286;28;20016;-80
2021/06/15 09:59:59;;;;;;;;;;;;;;;26.86;nan;101053.88;5049390;28;19964;-80
2021/06/15 10:02:26;;;;;;;;;;;;;;;27.11;nan;101060.50;5051158;28;20076;-77
2021/06/15 10:04:52;;;;;;;;;;;;;;;27.16;nan;101050.09;5056489;28;19921;-79
2021/06/15 10:07:24;;;;;;;;;;;;;;;27.13;nan;101057.66;5056836;28;19920;-79
2021/06/15 10:09:52;;;;;;;;;;;;;;;27.34;nan;101052.31;5053351;28;20023;-78
2021/06/15 10:12:18;;;;;;;;;;;;;;;27.13;nan;101050.47;5052440;28;19944;-78
2021/06/15 10:14:46;;;;;;;;;;;;;;;27.27;nan;101050.59;5039247;28;19945;-79
2021/06/15 10:17:12;;;;;;;;;;;;;;;27.37;nan;101043.09;5035012;28;20028;-79
2021/06/15 10:19:39;;;;;;;;;;;;;;;27.46;nan;101050.78;5056293;28;19932;-79
2021/06/15 10:22:06;;;;;;;;;;;;;;;27.40;nan;101040.06;5055402;28;19948;-79
2021/06/15 10:24:33;;;;;;;;;;;;;;;27.39;nan;101044.56;5056527;28;19920;-79
2021/06/15 10:27:00;;;;;;;;;;;;;;;27.66;nan;101040.28;5042373;28;19925;-79
2021/06/15 10:29:27;;;;;;;;;;;;;;;27.81;nan;101040.19;5061015;28;19982;-78
2021/06/15 10:31:54;;;;;;;;;;;;;;;27.81;nan;101043.69;5042997;28;19920;-80
2021/06/15 10:34:35;;;;;;;;;;;;;;;27.73;nan;101041.16;5060653;28;19927;-77
2021/06/15 10:37:02;;;;;;;;;;;;;;;27.68;nan;101043.56;5059828;28;20385;-78
2021/06/15 10:39:38;;;;;;;;;;;;;;;27.73;nan;101048.31;5061126;28;19921;-79
2021/06/15 10:42:11;;;;;;;;;;;;;;;27.51;nan;101050.22;5051287;28;19928;-75
2021/06/15 10:44:38;;;;;;;;;;;;;;;27.61;nan;101050.72;5040332;28;19943;-78
2021/06/15 10:47:10;;;;;;;;;;;;;;;27.73;nan;101041.16;5059862;28;19922;-80
2021/06/15 10:49:56;;;;;;;;;;;;;;;27.80;nan;101044.69;5049183;28;19998;-78
2021/06/15 10:52:23;;;;;;;;;;;;;;;27.65;nan;101040.50;5054428;28;20015;-78
2021/06/15 10:54:50;;;;;;;;;;;;;;;27.53;nan;101035.66;5053272;28;19925;-79
2021/06/15 10:57:23;;;;;;;;;;;;;;;27.57;nan;101036.94;5055209;28;20354;-78
2021/06/15 10:59:56;;;;;;;;;;;;;;;27.53;nan;101029.50;5048497;28;19935;-78
2021/06/15 11:02:25;;;;;;;;;;;;;;;27.61;nan;101032.84;5054774;28;19920;-80
2021/06/15 11:04:52;;;;;;;;;;;;;;;27.60;nan;101035.72;5056471;28;19970;-80
2021/06/15 11:07:24;;;;;;;;;;;;;;;27.49;nan;101036.22;5056230;28;19963;-81
2021/06/15 11:09:51;;;;;;;;;;;;;;;27.61;nan;101037.38;5056908;28;20019;-79
2021/06/15 11:12:23;;;;;;;;;;;;;;;27.39;nan;101033.06;5055562;28;19920;-78
2021/06/15 11:15:12;;;;;;;;;;;;;;;27.49;nan;101034.38;5037687;28;19990;-82
2021/06/15 11:17:55;;;;;;;;;;;;;;;27.59;nan;101034.88;5056154;28;19927;-81
2021/06/15 11:20:26;;;;;;;;;;;;;;;27.50;nan;101029.88;5056477;28;19924;-81
2021/06/15 11:23:14;;;;;;;;;;;;;;;26.89;nan;101029.53;5050393;28;19944;-80
2021/06/15 11:25:50;;;;;;;;;;;;;;;26.93;nan;101032.66;5039628;28;20372;-80
2021/06/15 11:28:37;;;;;;;;;;;;;;;27.08;nan;101031.56;5045987;28;20019;-80
2021/06/15 11:31:22;;;;;;;;;;;;;;;27.12;nan;101021.31;5028770;28;19921;-80
2021/06/15 11:34:07;;;;;;;;;;;;;;;27.26;nan;101025.78;5045853;28;19979;-80
2021/06/15 11:36:37;;;;;;;;;;;;;;;27.50;nan;101024.53;5044591;28;19959;-78
2021/06/15 11:39:22;;;;;;;;;;;;;;;27.62;nan;101031.00;5043935;28;19925;-79
2021/06/15 11:42:07;;;;;;;;;;;;;;;27.69;nan;101031.06;5061931;28;19920;-79
2021/06/15 11:44:51;;;;;;;;;;;;;;;27.77;nan;101033.56;5052238;28;19944;-79
2021/06/15 11:47:32;;;;;;;;;;;;;;;27.56;nan;101023.78;5035947;28;19921;-79
2021/06/15 11:50:07;;;;;;;;;;;;;;;27.63;nan;101022.00;5039519;28;19920;-80
2021/06/15 11:52:35;;;;;;;;;;;;;;;27.83;nan;101028.25;5056192;28;19934;-80
2021/06/15 11:55:02;;;;;;;;;;;;;;;27.89;nan;101016.81;5034030;28;19925;-79
2021/06/15 11:57:29;;;;;;;;;;;;;;;27.94;nan;101014.41;5050945;28;19921;-80
2021/06/15 11:59:58;;;;;;;;;;;;;;;27.98;nan;101015.63;5041986;28;19931;-79
2021/06/15 12:02:24;;;;;;;;;;;;;;;27.83;nan;101024.78;5064619;28;19920;-79
2021/06/15 12:05:04;;;;;;;;;;;;;;;28.17;nan;101014.13;5065453;28;19943;-80
2021/06/15 12:07:31;;;;;;;;;;;;;;;28.23;nan;101015.19;5064679;28;19921;-82
2021/06/15 12:10:08;;;;;;;;;;;;;;;28.38;nan;101019.34;5066149;28;20400;-82
2021/06/15 12:12:58;;;;;;;;;;;;;;;28.56;nan;101023.31;5047561;28;19924;-80
2021/06/15 12:15:26;;;;;;;;;;;;;;;28.43;nan;101013.38;5042261;28;19921;-81
2021/06/15 12:17:53;;;;;;;;;;;;;;;28.30;nan;101010.69;5044708;28;19920;-80
2021/06/15 12:20:22;;;;;;;;;;;;;;;28.36;nan;101015.25;5051406;28;19957;-82
2021/06/15 12:22:48;;;;;;;;;;;;;;;28.35;nan;101002.91;5043183;28;19928;-82
2021/06/15 12:25:16;;;;;;;;;;;;;;;28.55;nan;101009.13;5046476;28;20015;-82
2021/06/15 12:27:42;;;;;;;;;;;;;;;28.10;nan;101013.22;5058321;28;19921;-82
2021/06/15 12:30:09;;;;;;;;;;;;;;;28.25;nan;101005.09;5045842;28;19924;-81
2021/06/15 12:32:45;;;;;;;;;;;;;;;28.49;nan;101009.91;5081347;28;19920;-82
2021/06/15 12:35:19;;;;;;;;;;;;;;;28.52;nan;101009.53;5046961;28;19991;-82
2021/06/15 12:37:45;;;;;;;;;;;;;;;28.65;nan;101011.41;5080916;28;20020;-81
2021/06/15 12:40:12;;;;;;;;;;;;;;;28.46;nan;101006.84;5063223;28;19920;-81
2021/06/15 12:42:40;;;;;;;;;;;;;;;28.66;nan;101016.53;5066653;28;19920;-82
2021/06/15 12:45:07;;;;;;;;;;;;;;;28.25;nan;101010.44;5069127;28;19920;-83
2021/06/15 12:47:42;;;;;;;;;;;;;;;28.07;nan;101010.13;5062241;28;19947;-82
2021/06/15 12:50:19;;;;;;;;;;;;;;;28.32;nan;101003.28;5061236;28;20389;-81
2021/06/15 12:52:45;;;;;;;;;;;;;;;28.28;nan;101013.56;5062661;28;20531;-81
2021/06/15 12:55:13;;;;;;;;;;;;;;;28.61;nan;101012.81;5061606;28;19952;-80
2021/06/15 12:57:40;;;;;;;;;;;;;;;28.78;nan;101009.59;5066801;28;19921;-81
2021/06/15 13:00:09;;;;;;;;;;;;;;;28.35;nan;101018.94;5061139;28;19925;-81
2021/06/15 13:02:37;;;;;;;;;;;;;;;28.63;nan;101011.63;5079757;28;19920;-80
2021/06/15 13:05:05;;;;;;;;;;;;;;;29.13;nan;101014.81;5068511;28;19971;-82
2021/06/15 13:07:33;;;;;;;;;;;;;;;29.23;nan;101013.38;5046039;28;19955;-81
2021/06/15 13:10:14;;;;;;;;;;;;;;;29.28;nan;101023.44;5058926;28;19920;-81
2021/06/15 13:12:45;;;;;;;;;;;;;;;29.67;nan;101019.97;5055144;28;20361;-82